sensor_id;sensor_type;location;lat;lon;timestamp;pressure;altitude;pressure_sealevel;temperature
71807;BMP280;59655;42.590;23.364;2023-11-19T00:01:01;91227.59;;;1.22
71807;BMP280;59655;42.590;23.364;2023-11-19T00:03:26;91235.19;;;1.36
71807;BMP280;59655;42.590;23.364;2023-11-19T00:05:51;91237.09;;;1.30
71807;BMP280;59655;42.590;23.364;2023-11-19T00:08:17;91242.81;;;1.29
71807;BMP280;59655;42.590;23.364;2023-11-19T00:10:42;91248.50;;;1.27
71807;BMP280;59655;42.590;23.364;2023-11-19T00:13:07;91240.66;;;1.27
71807;BMP280;59655;42.590;23.364;2023-11-19T00:15:33;91247.78;;;1.27
71807;BMP280;59655;42.590;23.364;2023-11-19T00:17:58;91243.75;;;1.26
71807;BMP280;59655;42.590;23.364;2023-11-19T00:20:24;91233.53;;;1.22
71807;BMP280;59655;42.590;23.364;2023-11-19T00:22:49;91243.03;;;1.25
71807;BMP280;59655;42.590;23.364;2023-11-19T00:25:18;91225.47;;;1.26
71807;BMP280;59655;42.590;23.364;2023-11-19T00:27:44;91239.25;;;1.26
71807;BMP280;59655;42.590;23.364;2023-11-19T00:30:10;91223.34;;;1.30
71807;BMP280;59655;42.590;23.364;2023-11-19T00:32:36;91219.06;;;1.27
71807;BMP280;59655;42.590;23.364;2023-11-19T00:35:04;91240.19;;;1.29
71807;BMP280;59655;42.590;23.364;2023-11-19T00:37:30;91244.47;;;1.32
71807;BMP280;59655;42.590;23.364;2023-11-19T00:39:55;91254.69;;;1.30
71807;BMP280;59655;42.590;23.364;2023-11-19T00:42:22;91261.09;;;1.29
71807;BMP280;59655;42.590;23.364;2023-11-19T00:44:47;91266.78;;;1.38
71807;BMP280;59655;42.590;23.364;2023-11-19T00:47:12;91256.56;;;1.29
71807;BMP280;59655;42.590;23.364;2023-11-19T00:49:38;91270.81;;;1.23
71807;BMP280;59655;42.590;23.364;2023-11-19T00:52:03;91252.06;;;1.18
71807;BMP280;59655;42.590;23.364;2023-11-19T00:54:29;91252.06;;;1.24
71807;BMP280;59655;42.590;23.364;2023-11-19T00:56:54;91259.91;;;1.24
71807;BMP280;59655;42.590;23.364;2023-11-19T00:59:20;91260.84;;;1.27
71807;BMP280;59655;42.590;23.364;2023-11-19T01:01:46;91254.44;;;1.22
71807;BMP280;59655;42.590;23.364;2023-11-19T01:04:16;91255.38;;;1.25
71807;BMP280;59655;42.590;23.364;2023-11-19T01:06:41;91257.28;;;1.24
71807;BMP280;59655;42.590;23.364;2023-11-19T01:09:07;91258.00;;;1.25
71807;BMP280;59655;42.590;23.364;2023-11-19T01:11:33;91251.59;;;1.26
71807;BMP280;59655;42.590;23.364;2023-11-19T01:13:59;91261.56;;;1.27
71807;BMP280;59655;42.590;23.364;2023-11-19T01:16:25;91257.53;;;1.32
71807;BMP280;59655;42.590;23.364;2023-11-19T01:18:51;91272.50;;;1.31
71807;BMP280;59655;42.590;23.364;2023-11-19T01:21:16;91254.44;;;1.28
71807;BMP280;59655;42.590;23.364;2023-11-19T01:23:42;91263.69;;;1.40
71807;BMP280;59655;42.590;23.364;2023-11-19T01:26:11;91252.06;;;1.41
71807;BMP280;59655;42.590;23.364;2023-11-19T01:28:37;91246.13;;;1.35
71807;BMP280;59655;42.590;23.364;2023-11-19T01:31:04;91276.28;;;1.36
71807;BMP280;59655;42.590;23.364;2023-11-19T01:33:30;91269.38;;;1.38
71807;BMP280;59655;42.590;23.364;2023-11-19T01:35:55;91271.31;;;1.32
71807;BMP280;59655;42.590;23.364;2023-11-19T01:38:24;91283.66;;;1.32
71807;BMP280;59655;42.590;23.364;2023-11-19T01:40:49;91264.41;;;1.29
71807;BMP280;59655;42.590;23.364;2023-11-19T01:43:31;91262.06;;;1.26
71807;BMP280;59655;42.590;23.364;2023-11-19T01:45:57;91266.78;;;1.44
71807;BMP280;59655;42.590;23.364;2023-11-19T01:48:22;91260.59;;;1.36
71807;BMP280;59655;42.590;23.364;2023-11-19T01:50:48;91277.47;;;1.35
71807;BMP280;59655;42.590;23.364;2023-11-19T01:53:13;91275.81;;;1.32
71807;BMP280;59655;42.590;23.364;2023-11-19T01:55:39;91268.22;;;1.45
71807;BMP280;59655;42.590;23.364;2023-11-19T01:58:04;91262.50;;;1.47
71807;BMP280;59655;42.590;23.364;2023-11-19T02:00:30;91265.59;;;1.39
71807;BMP280;59655;42.590;23.364;2023-11-19T02:02:56;91276.06;;;1.45
71807;BMP280;59655;42.590;23.364;2023-11-19T02:05:21;91254.19;;;1.43
71807;BMP280;59655;42.590;23.364;2023-11-19T02:07:48;91241.09;;;1.48
71807;BMP280;59655;42.590;23.364;2023-11-19T02:10:15;91242.31;;;1.53
71807;BMP280;59655;42.590;23.364;2023-11-19T02:12:42;91251.59;;;1.26
71807;BMP280;59655;42.590;23.364;2023-11-19T02:15:10;91243.03;;;1.31
71807;BMP280;59655;42.590;23.364;2023-11-19T02:17:36;91251.34;;;1.29
71807;BMP280;59655;42.590;23.364;2023-11-19T02:20:06;91232.34;;;1.17
71807;BMP280;59655;42.590;23.364;2023-11-19T02:22:36;91233.31;;;1.14
71807;BMP280;59655;42.590;23.364;2023-11-19T02:25:05;91242.56;;;1.27
71807;BMP280;59655;42.590;23.364;2023-11-19T02:30:01;91245.41;;;1.34
71807;BMP280;59655;42.590;23.364;2023-11-19T02:32:29;91269.63;;;1.35
71807;BMP280;59655;42.590;23.364;2023-11-19T02:34:56;91256.81;;;1.20
71807;BMP280;59655;42.590;23.364;2023-11-19T02:37:21;91265.34;;;1.09
71807;BMP280;59655;42.590;23.364;2023-11-19T02:39:46;91234.94;;;1.06
71807;BMP280;59655;42.590;23.364;2023-11-19T02:42:12;91263.19;;;1.02
71807;BMP280;59655;42.590;23.364;2023-11-19T02:44:38;91243.25;;;0.99
71807;BMP280;59655;42.590;23.364;2023-11-19T02:47:05;91246.81;;;0.96
71807;BMP280;59655;42.590;23.364;2023-11-19T02:49:33;91236.13;;;0.99
71807;BMP280;59655;42.590;23.364;2023-11-19T02:51:58;91235.19;;;1.03
71807;BMP280;59655;42.590;23.364;2023-11-19T02:54:24;91265.06;;;0.90
71807;BMP280;59655;42.590;23.364;2023-11-19T02:56:52;91250.84;;;0.91
71807;BMP280;59655;42.590;23.364;2023-11-19T02:59:24;91248.00;;;0.95
71807;BMP280;59655;42.590;23.364;2023-11-19T03:01:53;91236.38;;;1.07
71807;BMP280;59655;42.590;23.364;2023-11-19T03:04:19;91230.47;;;1.18
71807;BMP280;59655;42.590;23.364;2023-11-19T03:06:48;91239.00;;;1.18
71807;BMP280;59655;42.590;23.364;2023-11-19T03:09:14;91238.28;;;1.29
71807;BMP280;59655;42.590;23.364;2023-11-19T03:11:39;91237.09;;;1.30
71807;BMP280;59655;42.590;23.364;2023-11-19T03:14:04;91235.44;;;1.27
71807;BMP280;59655;42.590;23.364;2023-11-19T03:16:30;91241.63;;;1.18
71807;BMP280;59655;42.590;23.364;2023-11-19T03:18:55;91251.09;;;1.27
71807;BMP280;59655;42.590;23.364;2023-11-19T03:21:31;91259.19;;;1.29
71807;BMP280;59655;42.590;23.364;2023-11-19T03:23:57;91257.31;;;1.30
71807;BMP280;59655;42.590;23.364;2023-11-19T03:26:28;91251.13;;;1.33
71807;BMP280;59655;42.590;23.364;2023-11-19T03:28:53;91286.97;;;1.27
71807;BMP280;59655;42.590;23.364;2023-11-19T03:31:19;91260.38;;;1.17
71807;BMP280;59655;42.590;23.364;2023-11-19T03:33:45;91274.38;;;1.25
71807;BMP280;59655;42.590;23.364;2023-11-19T03:36:11;91276.28;;;1.13
71807;BMP280;59655;42.590;23.364;2023-11-19T03:38:38;91273.19;;;1.09
71807;BMP280;59655;42.590;23.364;2023-11-19T03:41:13;91271.50;;;1.06
71807;BMP280;59655;42.590;23.364;2023-11-19T03:43:39;91281.22;;;0.94
71807;BMP280;59655;42.590;23.364;2023-11-19T03:46:18;91278.34;;;0.92
71807;BMP280;59655;42.590;23.364;2023-11-19T03:48:44;91269.13;;;0.97
71807;BMP280;59655;42.590;23.364;2023-11-19T03:51:09;91283.59;;;0.98
71807;BMP280;59655;42.590;23.364;2023-11-19T03:53:35;91291.22;;;1.07
71807;BMP280;59655;42.590;23.364;2023-11-19T03:56:00;91290.97;;;1.05
71807;BMP280;59655;42.590;23.364;2023-11-19T03:58:26;91316.63;;;1.01
71807;BMP280;59655;42.590;23.364;2023-11-19T04:00:51;91310.91;;;0.97
71807;BMP280;59655;42.590;23.364;2023-11-19T04:03:17;91305.91;;;0.93
71807;BMP280;59655;42.590;23.364;2023-11-19T04:05:44;91313.97;;;0.95
71807;BMP280;59655;42.590;23.364;2023-11-19T04:08:10;91329.19;;;0.97
71807;BMP280;59655;42.590;23.364;2023-11-19T04:10:35;91344.13;;;0.91
71807;BMP280;59655;42.590;23.364;2023-11-19T04:13:00;91322.72;;;0.87
71807;BMP280;59655;42.590;23.364;2023-11-19T04:15:26;91333.16;;;0.87
71807;BMP280;59655;42.590;23.364;2023-11-19T04:17:51;91332.94;;;0.85
71807;BMP280;59655;42.590;23.364;2023-11-19T04:20:17;91340.06;;;0.90
71807;BMP280;59655;42.590;23.364;2023-11-19T04:22:42;91334.38;;;0.91
71807;BMP280;59655;42.590;23.364;2023-11-19T04:25:08;91337.72;;;0.92
71807;BMP280;59655;42.590;23.364;2023-11-19T04:27:34;91307.31;;;0.94
71807;BMP280;59655;42.590;23.364;2023-11-19T04:29:59;91302.59;;;1.04
71807;BMP280;59655;42.590;23.364;2023-11-19T04:32:26;91320.63;;;0.91
71807;BMP280;59655;42.590;23.364;2023-11-19T04:34:52;91328.00;;;0.98
71807;BMP280;59655;42.590;23.364;2023-11-19T04:37:17;91319.44;;;0.92
71807;BMP280;59655;42.590;23.364;2023-11-19T04:39:46;91319.44;;;0.92
71807;BMP280;59655;42.590;23.364;2023-11-19T04:42:11;91301.66;;;1.02
71807;BMP280;59655;42.590;23.364;2023-11-19T04:44:37;91318.28;;;1.04
71807;BMP280;59655;42.590;23.364;2023-11-19T04:47:03;91308.06;;;1.12
71807;BMP280;59655;42.590;23.364;2023-11-19T04:49:28;91329.47;;;1.10
71807;BMP280;59655;42.590;23.364;2023-11-19T04:51:55;91316.88;;;1.09
71807;BMP280;59655;42.590;23.364;2023-11-19T04:54:21;91314.75;;;1.18
71807;BMP280;59655;42.590;23.364;2023-11-19T04:56:46;91305.97;;;1.22
71807;BMP280;59655;42.590;23.364;2023-11-19T04:59:14;91311.66;;;1.09
71807;BMP280;59655;42.590;23.364;2023-11-19T05:01:40;91324.22;;;1.05
71807;BMP280;59655;42.590;23.364;2023-11-19T05:04:07;91327.97;;;0.92
71807;BMP280;59655;42.590;23.364;2023-11-19T05:06:32;91316.16;;;1.08
71807;BMP280;59655;42.590;23.364;2023-11-19T05:08:59;91324.25;;;1.16
71807;BMP280;59655;42.590;23.364;2023-11-19T05:11:34;91333.03;;;1.18
71807;BMP280;59655;42.590;23.364;2023-11-19T05:14:02;91329.22;;;1.19
71807;BMP280;59655;42.590;23.364;2023-11-19T05:16:29;91332.06;;;1.05
71807;BMP280;59655;42.590;23.364;2023-11-19T05:18:54;91338.22;;;1.07
71807;BMP280;59655;42.590;23.364;2023-11-19T05:21:20;91347.97;;;1.07
71807;BMP280;59655;42.590;23.364;2023-11-19T05:23:45;91342.72;;;1.01
71807;BMP280;59655;42.590;23.364;2023-11-19T05:26:21;91350.75;;;0.92
71807;BMP280;59655;42.590;23.364;2023-11-19T05:28:47;91345.97;;;0.85
71807;BMP280;59655;42.590;23.364;2023-11-19T05:31:13;91348.63;;;0.96
71807;BMP280;59655;42.590;23.364;2023-11-19T05:33:38;91342.72;;;0.95
71807;BMP280;59655;42.590;23.364;2023-11-19T05:36:05;91351.69;;;0.89
71807;BMP280;59655;42.590;23.364;2023-11-19T05:38:30;91361.66;;;0.85
71807;BMP280;59655;42.590;23.364;2023-11-19T05:40:56;91354.81;;;0.93
71807;BMP280;59655;42.590;23.364;2023-11-19T05:43:22;91375.72;;;0.93
71807;BMP280;59655;42.590;23.364;2023-11-19T05:45:47;91347.66;;;0.88
71807;BMP280;59655;42.590;23.364;2023-11-19T05:48:13;91360.00;;;0.87
71807;BMP280;59655;42.590;23.364;2023-11-19T05:50:39;91366.38;;;0.81
71807;BMP280;59655;42.590;23.364;2023-11-19T05:53:04;91325.59;;;0.83
71807;BMP280;59655;42.590;23.364;2023-11-19T05:55:36;91324.41;;;0.90
71807;BMP280;59655;42.590;23.364;2023-11-19T05:58:03;91332.03;;;0.93
71807;BMP280;59655;42.590;23.364;2023-11-19T06:00:29;91333.41;;;0.89
71807;BMP280;59655;42.590;23.364;2023-11-19T06:02:55;91333.19;;;0.92
71807;BMP280;59655;42.590;23.364;2023-11-19T06:05:21;91332.75;;;0.99
71807;BMP280;59655;42.590;23.364;2023-11-19T06:07:46;91356.00;;;0.97
71807;BMP280;59655;42.590;23.364;2023-11-19T06:10:12;91365.00;;;0.96
71807;BMP280;59655;42.590;23.364;2023-11-19T06:12:39;91367.34;;;0.89
71807;BMP280;59655;42.590;23.364;2023-11-19T06:15:06;91376.81;;;0.81
71807;BMP280;59655;42.590;23.364;2023-11-19T06:17:33;91377.50;;;0.70
71807;BMP280;59655;42.590;23.364;2023-11-19T06:19:59;91371.84;;;0.83
71807;BMP280;59655;42.590;23.364;2023-11-19T06:22:24;91378.34;;;0.98
71807;BMP280;59655;42.590;23.364;2023-11-19T06:24:49;91370.50;;;0.98
71807;BMP280;59655;42.590;23.364;2023-11-19T06:27:15;91370.25;;;0.91
71807;BMP280;59655;42.590;23.364;2023-11-19T06:29:40;91355.94;;;0.81
71807;BMP280;59655;42.590;23.364;2023-11-19T06:32:06;91339.09;;;0.76
71807;BMP280;59655;42.590;23.364;2023-11-19T06:34:33;91335.81;;;0.92
71807;BMP280;59655;42.590;23.364;2023-11-19T06:36:59;91336.53;;;0.87
71807;BMP280;59655;42.590;23.364;2023-11-19T06:39:24;91334.38;;;0.86
71807;BMP280;59655;42.590;23.364;2023-11-19T06:41:50;91345.78;;;0.94
71807;BMP280;59655;42.590;23.364;2023-11-19T06:44:15;91396.06;;;0.83
71807;BMP280;59655;42.590;23.364;2023-11-19T06:46:41;91386.28;;;0.72
71807;BMP280;59655;42.590;23.364;2023-11-19T06:49:06;91374.44;;;0.77
71807;BMP280;59655;42.590;23.364;2023-11-19T06:51:33;91374.47;;;0.83
71807;BMP280;59655;42.590;23.364;2023-11-19T06:53:59;91377.56;;;0.87
71807;BMP280;59655;42.590;23.364;2023-11-19T06:56:25;91376.13;;;0.80
71807;BMP280;59655;42.590;23.364;2023-11-19T06:58:51;91376.84;;;0.86
71807;BMP280;59655;42.590;23.364;2023-11-19T07:01:17;91374.25;;;0.86
71807;BMP280;59655;42.590;23.364;2023-11-19T07:03:47;91354.78;;;0.87
71807;BMP280;59655;42.590;23.364;2023-11-19T07:06:12;91380.16;;;0.87
71807;BMP280;59655;42.590;23.364;2023-11-19T07:08:38;91422.16;;;0.77
71807;BMP280;59655;42.590;23.364;2023-11-19T07:11:04;91382.31;;;0.88
71807;BMP280;59655;42.590;23.364;2023-11-19T07:13:30;91379.50;;;0.92
71807;BMP280;59655;42.590;23.364;2023-11-19T07:15:58;91392.72;;;0.83
71807;BMP280;59655;42.590;23.364;2023-11-19T07:18:23;91392.97;;;0.85
71807;BMP280;59655;42.590;23.364;2023-11-19T07:20:49;91396.63;;;1.04
71807;BMP280;59655;42.590;23.364;2023-11-19T07:23:14;91403.56;;;1.18
71807;BMP280;59655;42.590;23.364;2023-11-19T07:25:43;91429.84;;;0.98
71807;BMP280;59655;42.590;23.364;2023-11-19T07:28:12;91406.84;;;1.08
71807;BMP280;59655;42.590;23.364;2023-11-19T07:30:38;91396.41;;;1.08
71807;BMP280;59655;42.590;23.364;2023-11-19T07:33:04;91409.03;;;1.21
71807;BMP280;59655;42.590;23.364;2023-11-19T07:35:30;91397.41;;;1.22
71807;BMP280;59655;42.590;23.364;2023-11-19T07:37:56;91416.16;;;1.20
71807;BMP280;59655;42.590;23.364;2023-11-19T07:40:23;91427.75;;;1.08
71807;BMP280;59655;42.590;23.364;2023-11-19T07:42:48;91421.63;;;1.16
71807;BMP280;59655;42.590;23.364;2023-11-19T07:45:14;91413.34;;;1.35
71807;BMP280;59655;42.590;23.364;2023-11-19T07:47:39;91446.78;;;1.19
71807;BMP280;59655;42.590;23.364;2023-11-19T07:50:05;91411.69;;;1.32
71807;BMP280;59655;42.590;23.364;2023-11-19T07:52:30;91410.22;;;1.25
71807;BMP280;59655;42.590;23.364;2023-11-19T07:54:56;91403.59;;;1.24
71807;BMP280;59655;42.590;23.364;2023-11-19T07:57:21;91413.34;;;1.29
71807;BMP280;59655;42.590;23.364;2023-11-19T07:59:49;91419.78;;;1.34
71807;BMP280;59655;42.590;23.364;2023-11-19T08:02:14;91419.06;;;1.45
71807;BMP280;59655;42.590;23.364;2023-11-19T08:04:39;91416.19;;;1.37
71807;BMP280;59655;42.590;23.364;2023-11-19T08:07:10;91428.31;;;1.40
71807;BMP280;59655;42.590;23.364;2023-11-19T08:09:35;91426.91;;;1.50
71807;BMP280;59655;42.590;23.364;2023-11-19T08:12:00;91433.31;;;1.44
71807;BMP280;59655;42.590;23.364;2023-11-19T08:14:26;91429.34;;;1.65
71807;BMP280;59655;42.590;23.364;2023-11-19T08:16:51;91414.84;;;1.64
71807;BMP280;59655;42.590;23.364;2023-11-19T08:19:17;91428.59;;;1.59
71807;BMP280;59655;42.590;23.364;2023-11-19T08:21:42;91441.00;;;1.64
71807;BMP280;59655;42.590;23.364;2023-11-19T08:24:07;91415.31;;;1.63
71807;BMP280;59655;42.590;23.364;2023-11-19T08:26:34;91435.03;;;1.64
71807;BMP280;59655;42.590;23.364;2023-11-19T08:28:59;91430.53;;;1.58
71807;BMP280;59655;42.590;23.364;2023-11-19T08:31:25;91433.38;;;1.66
71807;BMP280;59655;42.590;23.364;2023-11-19T08:33:50;91444.53;;;1.55
71807;BMP280;59655;42.590;23.364;2023-11-19T08:36:16;91438.09;;;1.51
71807;BMP280;59655;42.590;23.364;2023-11-19T08:38:42;91436.88;;;1.41
71807;BMP280;59655;42.590;23.364;2023-11-19T08:41:07;91446.63;;;1.46
71807;BMP280;59655;42.590;23.364;2023-11-19T08:43:33;91457.53;;;1.44
71807;BMP280;59655;42.590;23.364;2023-11-19T08:45:58;91451.88;;;1.51
71807;BMP280;59655;42.590;23.364;2023-11-19T08:48:23;91454.28;;;1.61
71807;BMP280;59655;42.590;23.364;2023-11-19T08:50:49;91464.50;;;1.58
71807;BMP280;59655;42.590;23.364;2023-11-19T08:53:15;91453.28;;;1.52
71807;BMP280;59655;42.590;23.364;2023-11-19T08:55:40;91443.59;;;1.64
71807;BMP280;59655;42.590;23.364;2023-11-19T08:58:06;91447.84;;;1.56
71807;BMP280;59655;42.590;23.364;2023-11-19T09:00:32;91450.47;;;1.62
71807;BMP280;59655;42.590;23.364;2023-11-19T09:02:57;91456.16;;;1.54
71807;BMP280;59655;42.590;23.364;2023-11-19T09:05:23;91455.47;;;1.59
71807;BMP280;59655;42.590;23.364;2023-11-19T09:07:48;91435.47;;;1.45
71807;BMP280;59655;42.590;23.364;2023-11-19T09:10:15;91423.81;;;1.46
71807;BMP280;59655;42.590;23.364;2023-11-19T09:12:41;91433.84;;;1.65
71807;BMP280;59655;42.590;23.364;2023-11-19T09:15:07;91424.31;;;1.62
71807;BMP280;59655;42.590;23.364;2023-11-19T09:17:32;91425.81;;;1.74
71807;BMP280;59655;42.590;23.364;2023-11-19T09:19:58;91429.31;;;1.59
71807;BMP280;59655;42.590;23.364;2023-11-19T09:22:23;91419.34;;;1.69
71807;BMP280;59655;42.590;23.364;2023-11-19T09:24:48;91420.06;;;1.75
71807;BMP280;59655;42.590;23.364;2023-11-19T09:27:14;91434.13;;;1.78
71807;BMP280;59655;42.590;23.364;2023-11-19T09:29:39;91446.72;;;1.85
71807;BMP280;59655;42.590;23.364;2023-11-19T09:32:06;91443.41;;;1.85
71807;BMP280;59655;42.590;23.364;2023-11-19T09:34:32;91446.47;;;1.83
71807;BMP280;59655;42.590;23.364;2023-11-19T09:36:57;91427.69;;;1.85
71807;BMP280;59655;42.590;23.364;2023-11-19T09:39:23;91428.88;;;1.89
71807;BMP280;59655;42.590;23.364;2023-11-19T09:41:51;91415.31;;;1.79
71807;BMP280;59655;42.590;23.364;2023-11-19T09:44:16;91409.84;;;1.77
71807;BMP280;59655;42.590;23.364;2023-11-19T09:46:43;91411.06;;;1.76
71807;BMP280;59655;42.590;23.364;2023-11-19T09:49:10;91405.13;;;1.87
71807;BMP280;59655;42.590;23.364;2023-11-19T09:51:36;91393.47;;;1.77
71807;BMP280;59655;42.590;23.364;2023-11-19T09:54:02;91393.94;;;1.92
71807;BMP280;59655;42.590;23.364;2023-11-19T09:56:29;91382.28;;;1.93
71807;BMP280;59655;42.590;23.364;2023-11-19T09:58:58;91372.53;;;2.05
71807;BMP280;59655;42.590;23.364;2023-11-19T10:01:24;91361.56;;;2.12
71807;BMP280;59655;42.590;23.364;2023-11-19T10:03:50;91387.03;;;2.12
71807;BMP280;59655;42.590;23.364;2023-11-19T10:06:16;91368.72;;;2.12
71807;BMP280;59655;42.590;23.364;2023-11-19T10:08:44;91368.47;;;2.21
71807;BMP280;59655;42.590;23.364;2023-11-19T10:11:09;91371.56;;;2.19
71807;BMP280;59655;42.590;23.364;2023-11-19T10:13:38;91377.53;;;2.09
71807;BMP280;59655;42.590;23.364;2023-11-19T10:16:08;91364.19;;;2.12
71807;BMP280;59655;42.590;23.364;2023-11-19T10:18:34;91376.81;;;2.14
71807;BMP280;59655;42.590;23.364;2023-11-19T10:21:06;91385.84;;;2.18
71807;BMP280;59655;42.590;23.364;2023-11-19T10:23:48;91390.34;;;2.12
71807;BMP280;59655;42.590;23.364;2023-11-19T10:26:14;91390.84;;;2.11
71807;BMP280;59655;42.590;23.364;2023-11-19T10:28:39;91399.19;;;2.21
71807;BMP280;59655;42.590;23.364;2023-11-19T10:31:09;91391.09;;;2.18
71807;BMP280;59655;42.590;23.364;2023-11-19T10:33:34;91387.75;;;2.24
71807;BMP280;59655;42.590;23.364;2023-11-19T10:36:00;91378.00;;;2.24
71807;BMP280;59655;42.590;23.364;2023-11-19T10:38:26;91365.34;;;2.34
71807;BMP280;59655;42.590;23.364;2023-11-19T10:40:52;91363.22;;;2.32
71807;BMP280;59655;42.590;23.364;2023-11-19T10:43:21;91358.19;;;2.40
71807;BMP280;59655;42.590;23.364;2023-11-19T10:45:51;91367.22;;;2.45
71807;BMP280;59655;42.590;23.364;2023-11-19T10:48:17;91381.28;;;2.47
71807;BMP280;59655;42.590;23.364;2023-11-19T10:50:44;91381.50;;;2.55
71807;BMP280;59655;42.590;23.364;2023-11-19T10:53:11;91365.75;;;2.66
71807;BMP280;59655;42.590;23.364;2023-11-19T10:55:38;91371.97;;;2.52
71807;BMP280;59655;42.590;23.364;2023-11-19T10:58:05;91363.88;;;2.55
71807;BMP280;59655;42.590;23.364;2023-11-19T11:00:54;91366.97;;;2.54
71807;BMP280;59655;42.590;23.364;2023-11-19T11:03:22;91370.06;;;2.64
71807;BMP280;59655;42.590;23.364;2023-11-19T11:05:51;91368.38;;;2.66
71807;BMP280;59655;42.590;23.364;2023-11-19T11:08:17;91372.84;;;2.77
71807;BMP280;59655;42.590;23.364;2023-11-19T11:10:54;91376.41;;;2.79
71807;BMP280;59655;42.590;23.364;2023-11-19T11:13:22;91363.06;;;2.83
71807;BMP280;59655;42.590;23.364;2023-11-19T11:15:49;91352.81;;;2.91
71807;BMP280;59655;42.590;23.364;2023-11-19T11:18:16;91347.00;;;3.04
71807;BMP280;59655;42.590;23.364;2023-11-19T11:20:44;91357.97;;;3.02
71807;BMP280;59655;42.590;23.364;2023-11-19T11:29:00;91358.38;;;3.17
71807;BMP280;59655;42.590;23.364;2023-11-19T11:31:55;91350.28;;;3.21
71807;BMP280;59655;42.590;23.364;2023-11-19T11:37:47;91361.69;;;3.24
71807;BMP280;59655;42.590;23.364;2023-11-19T11:40:15;91362.84;;;3.28
71807;BMP280;59655;42.590;23.364;2023-11-19T11:42:41;91369.97;;;3.28
71807;BMP280;59655;42.590;23.364;2023-11-19T11:45:11;91351.47;;;3.20
71807;BMP280;59655;42.590;23.364;2023-11-19T11:50:12;91342.25;;;3.44
71807;BMP280;59655;42.590;23.364;2023-11-19T11:57:56;91353.69;;;3.46
71807;BMP280;59655;42.590;23.364;2023-11-19T12:00:42;91347.47;;;3.49
71807;BMP280;59655;42.590;23.364;2023-11-19T12:03:08;91354.53;;;3.60
71807;BMP280;59655;42.590;23.364;2023-11-19T12:05:45;91352.38;;;3.64
71807;BMP280;59655;42.590;23.364;2023-11-19T12:08:12;91370.72;;;3.64
71807;BMP280;59655;42.590;23.364;2023-11-19T12:10:50;91361.25;;;3.55
71807;BMP280;59655;42.590;23.364;2023-11-19T12:13:17;91360.84;;;3.46
71807;BMP280;59655;42.590;23.364;2023-11-19T12:18:30;91350.94;;;3.63
71807;BMP280;59655;42.590;23.364;2023-11-19T12:20:56;91347.16;;;3.58
71807;BMP280;59655;42.590;23.364;2023-11-19T12:23:26;91336.41;;;3.62
71807;BMP280;59655;42.590;23.364;2023-11-19T12:25:51;91325.69;;;3.60
71807;BMP280;59655;42.590;23.364;2023-11-19T12:28:18;91332.53;;;3.69
71807;BMP280;59655;42.590;23.364;2023-11-19T12:30:44;91322.03;;;3.69
71807;BMP280;59655;42.590;23.364;2023-11-19T12:33:10;91325.34;;;3.75
71807;BMP280;59655;42.590;23.364;2023-11-19T12:35:40;91322.44;;;3.78
71807;BMP280;59655;42.590;23.364;2023-11-19T12:38:05;91319.50;;;3.88
71807;BMP280;59655;42.590;23.364;2023-11-19T12:40:31;91311.34;;;3.91
71807;BMP280;59655;42.590;23.364;2023-11-19T12:42:57;91307.78;;;3.94
71807;BMP280;59655;42.590;23.364;2023-11-19T12:45:23;91304.69;;;3.90
71807;BMP280;59655;42.590;23.364;2023-11-19T12:47:49;91316.34;;;3.95
71807;BMP280;59655;42.590;23.364;2023-11-19T12:50:17;91319.66;;;3.95
71807;BMP280;59655;42.590;23.364;2023-11-19T12:52:58;91311.53;;;3.99
71807;BMP280;59655;42.590;23.364;2023-11-19T12:55:25;91309.59;;;3.99
71807;BMP280;59655;42.590;23.364;2023-11-19T12:57:51;91305.06;;;4.00
71807;BMP280;59655;42.590;23.364;2023-11-19T13:00:23;91315.78;;;4.02
71807;BMP280;59655;42.590;23.364;2023-11-19T13:02:51;91316.00;;;4.04
71807;BMP280;59655;42.590;23.364;2023-11-19T13:05:31;91332.63;;;4.12
71807;BMP280;59655;42.590;23.364;2023-11-19T13:08:06;91324.94;;;4.20
71807;BMP280;59655;42.590;23.364;2023-11-19T13:10:50;91307.03;;;4.18
71807;BMP280;59655;42.590;23.364;2023-11-19T13:13:16;91320.38;;;4.20
71807;BMP280;59655;42.590;23.364;2023-11-19T13:15:42;91311.03;;;4.25
71807;BMP280;59655;42.590;23.364;2023-11-19T13:18:11;91317.19;;;4.28
71807;BMP280;59655;42.590;23.364;2023-11-19T13:20:37;91309.97;;;4.34
71807;BMP280;59655;42.590;23.364;2023-11-19T13:23:05;91309.72;;;4.37
71807;BMP280;59655;42.590;23.364;2023-11-19T13:25:31;91300.84;;;4.40
71807;BMP280;59655;42.590;23.364;2023-11-19T13:27:57;91295.59;;;4.40
71807;BMP280;59655;42.590;23.364;2023-11-19T13:30:23;91294.09;;;4.45
71807;BMP280;59655;42.590;23.364;2023-11-19T13:32:49;91285.19;;;4.54
71807;BMP280;59655;42.590;23.364;2023-11-19T13:35:16;91277.25;;;4.59
71807;BMP280;59655;42.590;23.364;2023-11-19T13:37:42;91278.66;;;4.60
71807;BMP280;59655;42.590;23.364;2023-11-19T13:40:08;91293.91;;;4.62
71807;BMP280;59655;42.590;23.364;2023-11-19T13:42:36;91297.16;;;4.68
71807;BMP280;59655;42.590;23.364;2023-11-19T13:45:15;91301.66;;;4.73
71807;BMP280;59655;42.590;23.364;2023-11-19T13:47:44;91309.47;;;4.79
71807;BMP280;59655;42.590;23.364;2023-11-19T13:50:14;91307.75;;;4.81
71807;BMP280;59655;42.590;23.364;2023-11-19T13:52:41;91313.56;;;4.74
71807;BMP280;59655;42.590;23.364;2023-11-19T13:55:10;91303.59;;;4.67
71807;BMP280;59655;42.590;23.364;2023-11-19T13:57:37;91308.94;;;4.61
71807;BMP280;59655;42.590;23.364;2023-11-19T14:00:03;91309.25;;;4.58
71807;BMP280;59655;42.590;23.364;2023-11-19T14:02:33;91324.78;;;4.56
71807;BMP280;59655;42.590;23.364;2023-11-19T14:04:58;91323.16;;;4.53
71807;BMP280;59655;42.590;23.364;2023-11-19T14:07:24;91313.06;;;4.57
71807;BMP280;59655;42.590;23.364;2023-11-19T14:09:49;91318.09;;;4.55
71807;BMP280;59655;42.590;23.364;2023-11-19T14:12:15;91333.66;;;4.53
71807;BMP280;59655;42.590;23.364;2023-11-19T14:14:40;91342.00;;;4.51
71807;BMP280;59655;42.590;23.364;2023-11-19T14:17:07;91325.81;;;4.47
71807;BMP280;59655;42.590;23.364;2023-11-19T14:19:33;91330.38;;;4.47
71807;BMP280;59655;42.590;23.364;2023-11-19T14:21:58;91336.19;;;4.39
71807;BMP280;59655;42.590;23.364;2023-11-19T14:24:25;91344.13;;;4.34
71807;BMP280;59655;42.590;23.364;2023-11-19T14:26:51;91344.91;;;4.29
71807;BMP280;59655;42.590;23.364;2023-11-19T14:29:17;91355.44;;;4.23